This is the latest recevied weather packets stored in our database for station/object YO6LRV-3. If no packets are shown the sender has not sent any weather packets the latest 10 day(s).
| Time | Temp. | Humidity | Pressure | Rain* | Wind** | Luminosity | Snow |
|---|---|---|---|---|---|---|---|
| 1777932369 | 16.11° C | 37% | 1015.8 hPa | - | - | - | - |
| 1777928768 | 17.22° C | 38% | 1015.7 hPa | - | - | - | - |
| 1777926968 | 17.22° C | 36% | 1015.8 hPa | - | - | - | - |
| 1777926068 | 17.22° C | 36% | 1015 hPa | - | - | - | - |
| 1777925168 | 17.78° C | 36% | 1015.6 hPa | - | - | - | - |
| 1777924268 | 17.78° C | 35% | 1015.6 hPa | - | - | - | - |
| 1777921570 | 18.89° C | 34% | 1015.6 hPa | - | - | - | - |
| 1777916169 | 20.56° C | 32% | 1014.8 hPa | - | - | - | - |
| 1777914369 | 21.11° C | 32% | 1014.8 hPa | - | - | - | - |
| 1777910768 | 22.78° C | 31% | 1014.7 hPa | - | - | - | - |
| 1777908968 | 23.33° C | 31% | 1014.8 hPa | - | - | - | - |
| 1777903567 | 25.56° C | 29% | 1015.1 hPa | - | - | - | - |
| 1777900867 | 26.67° C | 29% | 1015.5 hPa | - | - | - | - |
| 1777899962 | 26.67° C | 29% | 1015.7 hPa | - | - | - | - |
| 1777898161 | 27.22° C | 30% | 1015.8 hPa | - | - | - | - |
| 1777897268 | 27.78° C | 29% | 1016.1 hPa | - | - | - | - |
| 1777896364 | 27.78° C | 30% | 1016.1 hPa | - | - | - | - |
| 1777895461 | 27.78° C | 30% | 1016.4 hPa | - | - | - | - |
| 1777894569 | 26.67° C | 31% | 1016.5 hPa | - | - | - | - |
| 1777893671 | 26.11° C | 32% | 1016.5 hPa | - | - | - | - |
| 1777888267 | 18.89° C | 43% | 1017.4 hPa | - | - | - | - |
| 1777887367 | 18.33° C | 45% | 1017.7 hPa | - | - | - | - |
| 1777886467 | 17.22° C | 46% | 1017.9 hPa | - | - | - | - |
| 1777885567 | 16.67° C | 46% | 1018 hPa | - | - | - | - |
| 1777884667 | 15.56° C | 46% | 1018.1 hPa | - | - | - | - |
* Rain since midnight (hover to see other rain measurements)
** Current wind speed in m/s (hover to see current wind gust speed)